Time;durP1;ratioP1;P1;durP2;ratioP2;P2;SDS_P1;SDS_P2;PMS_P1;PMS_P2;Temp;Humidity;BMP_temperature;BMP_pressure;BME280_temperature;BME280_humidity;BME280_pressure;Samples;Min_cycle;Max_cycle;Signal;HPM_P1;HPM_P2
2023/01/19 00:01:30;;;;;;;22.58;20.58;;;4.50;99.90;;;;;;5116886;28;20051;-75
2023/01/19 00:03:56;;;;;;;22.63;20.40;;;4.60;99.90;;;;;;5118978;28;20105;-75
2023/01/19 00:06:22;;;;;;;21.85;19.85;;;4.50;99.90;;;;;;5121503;28;20044;-75
2023/01/19 00:08:51;;;;;;;24.08;20.92;;;4.50;99.90;;;;;;5121426;28;20068;-75
2023/01/19 00:11:18;;;;;;;24.00;21.45;;;4.70;99.90;;;;;;5121421;28;20436;-75
2023/01/19 00:13:52;;;;;;;24.48;20.33;;;4.70;99.90;;;;;;5121341;28;20110;-75
2023/01/19 00:16:21;;;;;;;22.25;19.92;;;4.80;99.90;;;;;;5120682;28;20043;-75
2023/01/19 00:18:49;;;;;;;22.00;19.88;;;4.80;99.90;;;;;;5120924;28;20522;-75
2023/01/19 00:21:15;;;;;;;23.23;20.85;;;4.70;99.90;;;;;;5120885;28;20455;-75
2023/01/19 00:23:42;;;;;;;20.38;18.42;;;4.60;99.90;;;;;;5120570;28;20055;-74
2023/01/19 00:26:09;;;;;;;21.25;19.35;;;4.60;99.90;;;;;;5121139;28;20075;-75
2023/01/19 00:28:35;;;;;;;21.15;19.23;;;4.50;99.90;;;;;;5121048;28;20041;-75
2023/01/19 00:31:01;;;;;;;20.65;18.98;;;4.60;99.90;;;;;;5120988;28;20071;-75
2023/01/19 00:33:27;;;;;;;23.80;20.92;;;4.70;99.90;;;;;;5120931;28;20077;-75
2023/01/19 00:35:56;;;;;;;22.90;20.05;;;4.70;99.90;;;;;;5120949;28;20043;-75
2023/01/19 00:38:22;;;;;;;24.73;22.20;;;4.70;99.90;;;;;;5120533;28;20436;-75
2023/01/19 00:40:47;;;;;;;21.42;19.48;;;4.70;99.90;;;;;;5120794;28;20048;-75
2023/01/19 00:43:13;;;;;;;21.58;19.80;;;4.70;99.90;;;;;;5120674;28;20336;-75
2023/01/19 00:45:39;;;;;;;22.13;20.27;;;4.70;99.90;;;;;;5120725;28;20039;-75
2023/01/19 00:48:05;;;;;;;20.70;18.80;;;4.80;99.90;;;;;;5120603;28;20032;-75
2023/01/19 00:50:31;;;;;;;20.95;18.80;;;4.70;99.90;;;;;;5119317;28;20052;-75
2023/01/19 00:53:01;;;;;;;19.30;17.42;;;4.70;99.90;;;;;;5120566;28;20067;-75
2023/01/19 00:55:27;;;;;;;19.83;17.98;;;4.70;99.90;;;;;;5120583;28;20115;-75
2023/01/19 00:57:53;;;;;;;19.58;18.02;;;4.70;99.90;;;;;;5120480;28;20035;-75
2023/01/19 01:00:20;;;;;;;20.02;17.55;;;4.60;99.90;;;;;;5102205;28;20088;-75
2023/01/19 01:02:48;;;;;;;19.45;17.42;;;4.60;99.90;;;;;;5120113;28;20044;-75
2023/01/19 01:05:14;;;;;;;18.45;16.50;;;4.70;99.90;;;;;;5120379;28;20046;-75
2023/01/19 01:07:41;;;;;;;19.58;17.60;;;4.80;99.90;;;;;;5120026;27;20332;-75
2023/01/19 01:10:09;;;;;;;18.13;16.58;;;4.70;99.90;;;;;;5119961;28;20088;-75
2023/01/19 01:12:37;;;;;;;18.35;16.42;;;4.80;99.90;;;;;;5120008;27;20034;-75
2023/01/19 01:15:07;;;;;;;17.80;16.27;;;4.80;99.90;;;;;;5119055;28;20389;-75
2023/01/19 01:17:32;;;;;;;17.38;15.88;;;4.90;99.90;;;;;;5120457;28;20324;-75
2023/01/19 01:19:58;;;;;;;17.50;16.20;;;4.70;99.90;;;;;;5118819;28;20036;-75
2023/01/19 01:22:24;;;;;;;17.73;16.63;;;4.80;99.90;;;;;;5119722;28;20101;-75
2023/01/19 01:24:50;;;;;;;17.90;16.60;;;4.90;99.90;;;;;;5118562;28;20063;-75
2023/01/19 01:27:16;;;;;;;17.30;15.82;;;4.90;99.90;;;;;;5118634;28;20335;-75
2023/01/19 01:29:45;;;;;;;17.75;16.55;;;4.90;99.90;;;;;;5119928;28;20063;-75
2023/01/19 01:32:12;;;;;;;18.30;16.98;;;4.90;99.90;;;;;;5119563;28;20449;-75
2023/01/19 01:34:38;;;;;;;19.20;17.85;;;4.90;99.90;;;;;;5119789;28;20036;-75
2023/01/19 01:37:07;;;;;;;19.25;17.83;;;5.00;99.90;;;;;;5119772;28;20039;-75
2023/01/19 01:39:35;;;;;;;18.73;17.52;;;4.80;99.90;;;;;;5119388;28;20420;-75
2023/01/19 01:42:02;;;;;;;19.08;17.98;;;4.70;99.90;;;;;;5119656;28;20058;-75
2023/01/19 01:44:56;;;;;;;20.20;18.75;;;4.70;99.90;;;;;;5119579;28;20039;-75
2023/01/19 01:47:42;;;;;;;20.60;19.02;;;4.60;99.90;;;;;;5118927;28;20042;-75
2023/01/19 01:50:19;;;;;;;19.43;17.90;;;4.50;99.90;;;;;;5119356;28;20429;-75
2023/01/19 01:53:02;;;;;;;20.10;18.67;;;4.50;99.90;;;;;;5119473;28;20051;-75
2023/01/19 01:55:29;;;;;;;19.88;18.50;;;4.50;99.90;;;;;;5119120;28;20039;-75
2023/01/19 01:58:01;;;;;;;19.75;18.17;;;4.60;99.90;;;;;;5119311;28;20082;-75
2023/01/19 02:02:49;;;;;;;20.95;19.10;;;4.70;99.90;;;;;;5119367;28;20156;-75
2023/01/19 02:03:14;;;;;;;19.98;18.48;;;4.60;99.90;;;;;;5119134;28;20131;-75
2023/01/19 02:05:40;;;;;;;21.13;19.02;;;4.60;99.90;;;;;;5119189;27;20118;-75
2023/01/19 02:13:42;;;;;;;19.70;18.15;;;4.70;99.90;;;;;;5119101;27;20057;-75
2023/01/19 02:16:09;;;;;;;21.73;19.30;;;4.80;99.90;;;;;;5119027;28;20050;-75
2023/01/19 02:18:36;;;;;;;18.80;17.40;;;4.70;99.90;;;;;;5118649;28;20100;-75
2023/01/19 02:21:18;;;;;;;21.92;19.65;;;4.60;99.90;;;;;;5117890;28;20036;-75
2023/01/19 02:23:48;;;;;;;19.17;17.38;;;4.70;99.90;;;;;;5118559;28;20077;-75
2023/01/19 02:26:18;;;;;;;17.63;16.13;;;4.50;99.90;;;;;;5117964;28;20428;-75
2023/01/19 02:28:50;;;;;;;18.45;17.05;;;4.50;99.90;;;;;;5118801;28;20032;-75
2023/01/19 02:31:17;;;;;;;21.48;18.38;;;4.40;99.90;;;;;;5118385;28;20506;-75
2023/01/19 02:33:43;;;;;;;19.58;18.02;;;4.50;99.90;;;;;;5118666;28;20314;-75
2023/01/19 02:36:11;;;;;;;19.85;18.25;;;4.50;99.90;;;;;;5118264;28;20051;-75
2023/01/19 02:38:38;;;;;;;19.63;17.70;;;4.40;99.90;;;;;;5118550;28;20040;-75
2023/01/19 02:41:06;;;;;;;19.30;17.52;;;4.40;99.90;;;;;;5118459;28;20325;-75
2023/01/19 02:43:33;;;;;;;22.08;20.00;;;4.40;99.90;;;;;;5118017;28;20047;-75
2023/01/19 02:45:59;;;;;;;21.38;19.13;;;4.60;99.90;;;;;;5118399;28;20106;-75
2023/01/19 02:48:25;;;;;;;20.60;19.00;;;4.60;99.90;;;;;;5117706;28;20062;-75
2023/01/19 02:50:59;;;;;;;19.55;18.08;;;4.60;99.90;;;;;;5117256;28;20039;-74
2023/01/19 02:53:31;;;;;;;19.80;18.30;;;4.70;99.90;;;;;;5117990;28;20126;-75
2023/01/19 02:56:36;;;;;;;21.42;19.65;;;4.70;99.90;;;;;;5117904;28;20039;-74
2023/01/19 02:59:18;;;;;;;21.00;19.23;;;4.80;99.90;;;;;;5107979;28;20336;-75
2023/01/19 03:02:07;;;;;;;20.42;18.85;;;4.70;99.90;;;;;;5118123;28;20490;-75
2023/01/19 03:04:33;;;;;;;21.50;19.42;;;4.70;99.90;;;;;;5118010;28;20051;-75
2023/01/19 03:07:15;;;;;;;19.33;17.73;;;4.70;99.90;;;;;;5118031;28;20324;-75
2023/01/19 03:10:06;;;;;;;19.35;17.85;;;4.50;99.90;;;;;;5118009;28;20046;-75
2023/01/19 03:12:50;;;;;;;20.02;18.27;;;4.70;99.90;;;;;;5117873;28;20092;-75
2023/01/19 03:15:21;;;;;;;21.42;19.35;;;4.70;99.90;;;;;;5117578;28;20428;-77
2023/01/19 03:17:50;;;;;;;23.05;19.17;;;4.70;99.90;;;;;;5117081;28;20040;-75
2023/01/19 03:20:23;;;;;;;21.92;19.63;;;4.80;99.90;;;;;;5117574;28;20093;-75
2023/01/19 03:22:52;;;;;;;19.35;17.85;;;4.80;99.90;;;;;;5117651;28;20325;-75
2023/01/19 03:25:21;;;;;;;22.75;20.55;;;4.80;99.90;;;;;;5117111;28;20051;-75
2023/01/19 03:27:50;;;;;;;24.50;22.10;;;4.80;99.90;;;;;;5116244;28;20039;-74
2023/01/19 03:30:23;;;;;;;26.63;22.50;;;4.80;99.90;;;;;;5117491;28;20040;-74
2023/01/19 03:32:59;;;;;;;24.65;21.85;;;4.70;99.90;;;;;;5117513;28;20039;-74
2023/01/19 03:35:29;;;;;;;23.02;21.13;;;4.70;99.90;;;;;;5117597;28;20044;-74
2023/01/19 03:37:57;;;;;;;22.88;20.88;;;4.70;99.90;;;;;;5116344;28;20076;-75
2023/01/19 03:40:29;;;;;;;27.70;22.00;;;4.70;99.90;;;;;;5117470;28;20379;-75
2023/01/19 03:42:55;;;;;;;24.00;21.90;;;4.80;99.90;;;;;;5117611;27;20046;-75
2023/01/19 03:45:22;;;;;;;25.05;22.48;;;4.90;99.90;;;;;;5117426;28;20102;-75
2023/01/19 03:47:48;;;;;;;23.77;21.77;;;4.80;99.90;;;;;;5117031;28;20126;-75
2023/01/19 03:50:24;;;;;;;23.95;22.10;;;4.80;99.90;;;;;;5117371;28;20035;-75
2023/01/19 03:53:10;;;;;;;25.17;23.17;;;4.90;99.90;;;;;;5117383;28;20035;-75
2023/01/19 03:55:38;;;;;;;26.17;23.95;;;5.00;99.90;;;;;;5117403;28;20039;-75
2023/01/19 03:58:04;;;;;;;25.42;23.48;;;5.10;99.90;;;;;;5117282;28;20043;-75
2023/01/19 04:00:30;;;;;;;29.10;25.00;;;5.10;99.90;;;;;;5116899;28;20044;-75
2023/01/19 04:02:55;;;;;;;24.85;22.75;;;5.20;99.90;;;;;;5117180;28;20065;-75
2023/01/19 04:05:22;;;;;;;27.33;23.90;;;5.20;99.90;;;;;;5116912;28;20035;-75
2023/01/19 04:07:49;;;;;;;29.08;23.77;;;5.20;99.90;;;;;;5117162;28;20036;-75
2023/01/19 04:10:16;;;;;;;23.75;21.55;;;5.30;99.90;;;;;;5116840;28;20036;-75
2023/01/19 04:12:42;;;;;;;26.77;23.83;;;5.40;99.90;;;;;;5115915;28;20114;-75
2023/01/19 04:15:08;;;;;;;23.65;21.35;;;5.40;99.90;;;;;;5117119;28;20067;-75
2023/01/19 04:17:33;;;;;;;23.38;21.38;;;5.50;99.90;;;;;;5116785;28;20044;-75
2023/01/19 04:19:59;;;;;;;24.85;22.67;;;5.50;99.90;;;;;;5117094;28;20051;-75
2023/01/19 04:22:25;;;;;;;23.20;21.15;;;5.50;99.90;;;;;;5117017;28;20044;-75
2023/01/19 04:24:51;;;;;;;24.25;21.83;;;5.60;99.90;;;;;;5116502;28;20043;-75
2023/01/19 04:27:17;;;;;;;23.40;21.15;;;5.50;99.90;;;;;;5116721;28;20055;-75
2023/01/19 04:29:43;;;;;;;22.38;20.38;;;5.60;99.90;;;;;;5116975;28;20114;-75
2023/01/19 04:32:09;;;;;;;22.90;20.60;;;5.50;99.90;;;;;;5115657;28;20078;-75
2023/01/19 04:34:34;;;;;;;22.38;20.48;;;5.50;99.90;;;;;;5116918;28;20043;-75
2023/01/19 04:37:00;;;;;;;23.98;20.13;;;5.60;99.90;;;;;;5116933;28;20092;-75
2023/01/19 04:39:26;;;;;;;21.63;19.52;;;5.60;99.90;;;;;;5116609;28;20040;-75
2023/01/19 04:41:52;;;;;;;35.90;19.90;;;5.70;99.90;;;;;;5116942;28;20048;-75
2023/01/19 04:44:18;;;;;;;30.27;19.70;;;5.70;99.90;;;;;;5116765;28;20043;-75
2023/01/19 04:46:44;;;;;;;20.15;18.35;;;5.70;99.90;;;;;;5115199;28;20058;-76
2023/01/19 04:49:09;;;;;;;27.98;19.98;;;5.60;99.90;;;;;;5118103;28;20028;-75
2023/01/19 04:51:36;;;;;;;27.33;20.15;;;5.70;99.90;;;;;;5120635;28;20035;-75
2023/01/19 04:54:02;;;;;;;22.65;20.05;;;5.60;99.90;;;;;;5120313;28;20420;-75
2023/01/19 04:56:28;;;;;;;22.90;20.65;;;5.40;99.90;;;;;;5120579;28;20164;-75
2023/01/19 04:58:54;;;;;;;23.70;21.38;;;5.50;99.90;;;;;;5120188;28;20447;-75
2023/01/19 05:01:19;;;;;;;22.40;20.42;;;5.50;99.90;;;;;;5120498;28;20039;-75
2023/01/19 05:03:45;;;;;;;25.80;21.27;;;5.30;99.90;;;;;;5120048;28;20043;-75
2023/01/19 05:06:11;;;;;;;31.73;21.70;;;5.30;99.90;;;;;;5120349;28;20297;-75
2023/01/19 05:08:37;;;;;;;21.23;19.42;;;5.30;99.90;;;;;;5120335;28;20059;-75
2023/01/19 05:11:03;;;;;;;24.38;21.73;;;5.20;99.90;;;;;;5120327;28;20032;-75
2023/01/19 05:13:29;;;;;;;30.30;22.52;;;5.30;99.90;;;;;;5119965;28;20054;-75
2023/01/19 05:15:55;;;;;;;22.60;20.50;;;5.40;99.90;;;;;;5120208;28;20077;-75
2023/01/19 05:18:20;;;;;;;23.02;20.98;;;5.30;99.90;;;;;;5119790;28;20412;-75
2023/01/19 05:20:46;;;;;;;20.52;18.70;;;5.40;99.90;;;;;;5119108;28;20047;-75
2023/01/19 05:23:12;;;;;;;22.13;20.27;;;5.30;99.90;;;;;;5119984;28;20054;-75
2023/01/19 05:25:37;;;;;;;25.35;21.02;;;5.30;99.90;;;;;;5119560;28;20058;-75
2023/01/19 05:28:03;;;;;;;22.25;20.13;;;5.30;99.90;;;;;;5119950;28;20049;-75
2023/01/19 05:30:29;;;;;;;26.67;20.02;;;5.30;99.90;;;;;;5119930;28;20060;-75
2023/01/19 05:32:55;;;;;;;21.35;19.08;;;5.30;99.90;;;;;;5119934;28;20046;-75
2023/01/19 05:35:20;;;;;;;21.50;19.58;;;5.10;99.90;;;;;;5119810;28;20043;-75
2023/01/19 05:37:46;;;;;;;22.88;20.85;;;5.10;99.90;;;;;;5119789;28;20073;-75
2023/01/19 05:40:12;;;;;;;21.80;19.92;;;5.00;99.90;;;;;;5118394;28;20051;-75
2023/01/19 05:42:38;;;;;;;21.10;19.20;;;5.10;99.90;;;;;;5119402;28;20046;-75
2023/01/19 05:45:04;;;;;;;21.00;19.52;;;5.00;99.90;;;;;;5119237;28;20118;-75
2023/01/19 05:47:30;;;;;;;22.27;20.25;;;5.10;99.90;;;;;;5118905;28;20376;-75
2023/01/19 05:49:56;;;;;;;22.50;20.63;;;5.00;99.90;;;;;;5119512;28;20031;-76
2023/01/19 05:52:23;;;;;;;21.77;19.95;;;5.00;99.90;;;;;;5119497;28;20069;-75
2023/01/19 05:54:50;;;;;;;22.40;20.98;;;5.00;99.90;;;;;;5119439;28;20032;-75
2023/01/19 05:57:16;;;;;;;21.48;20.20;;;5.00;99.90;;;;;;5119111;28;20039;-75
2023/01/19 05:59:42;;;;;;;21.55;19.85;;;5.00;99.90;;;;;;5118938;28;20043;-76
2023/01/19 06:02:08;;;;;;;21.00;19.50;;;4.90;99.90;;;;;;5118446;28;20046;-75
2023/01/19 06:04:34;;;;;;;20.55;19.25;;;4.80;99.90;;;;;;5119167;28;20075;-78
2023/01/19 06:07:00;;;;;;;21.33;19.70;;;4.80;99.90;;;;;;5118885;28;20486;-75
2023/01/19 06:09:26;;;;;;;19.38;18.02;;;4.60;99.90;;;;;;5119208;28;20324;-75
2023/01/19 06:11:56;;;;;;;19.40;17.95;;;4.80;99.90;;;;;;5118059;28;20039;-75
2023/01/19 06:14:22;;;;;;;19.98;18.70;;;4.80;99.90;;;;;;5118732;28;20047;-75
2023/01/19 06:16:47;;;;;;;19.25;17.85;;;4.90;99.90;;;;;;5118799;28;20040;-75
2023/01/19 06:19:13;;;;;;;16.70;15.48;;;5.00;99.90;;;;;;5119007;28;20439;-75
2023/01/19 06:21:39;;;;;;;17.40;16.40;;;5.00;99.90;;;;;;5118667;28;20036;-75
2023/01/19 06:24:05;;;;;;;16.88;15.32;;;4.90;99.90;;;;;;5117491;28;20058;-75
2023/01/19 06:26:31;;;;;;;17.58;16.38;;;4.90;99.90;;;;;;5118492;28;20055;-75
2023/01/19 06:28:56;;;;;;;17.73;16.33;;;5.00;99.90;;;;;;5118733;28;20040;-75
2023/01/19 06:31:22;;;;;;;17.65;16.55;;;5.00;99.90;;;;;;5118719;28;20321;-76
2023/01/19 06:33:48;;;;;;;18.05;16.98;;;5.20;99.90;;;;;;5118662;28;20042;-75
2023/01/19 06:36:14;;;;;;;17.02;16.02;;;5.30;99.90;;;;;;5118638;28;20046;-75
2023/01/19 06:38:40;;;;;;;16.05;14.95;;;5.30;99.90;;;;;;5118607;28;20043;-75
2023/01/19 06:41:05;;;;;;;14.07;12.98;;;4.80;99.90;;;;;;5118606;28;20400;-75
2023/01/19 06:43:31;;;;;;;14.07;12.98;;;4.60;99.90;;;;;;5118468;28;20057;-75
2023/01/19 06:45:59;;;;;;;14.23;13.00;;;4.60;99.90;;;;;;5118552;28;20080;-75
2023/01/19 06:48:25;;;;;;;15.35;13.30;;;4.70;99.90;;;;;;5118135;28;20039;-75
2023/01/19 06:50:51;;;;;;;14.15;13.05;;;4.80;99.90;;;;;;5118078;28;20493;-75
2023/01/19 06:53:19;;;;;;;14.70;13.35;;;4.90;99.90;;;;;;5118317;28;20157;-75
2023/01/19 06:55:45;;;;;;;17.23;13.55;;;5.00;99.90;;;;;;5118182;28;20043;-75
2023/01/19 06:58:11;;;;;;;15.38;14.00;;;5.00;99.90;;;;;;5117949;28;20305;-75
2023/01/19 07:00:37;;;;;;;15.82;14.32;;;4.90;99.90;;;;;;5117114;28;20417;-75
2023/01/19 07:03:08;;;;;;;21.30;16.45;;;4.90;99.90;;;;;;5118117;28;20034;-75
2023/01/19 07:05:35;;;;;;;17.90;16.10;;;5.00;99.90;;;;;;5117803;28;20115;-75
2023/01/19 07:08:01;;;;;;;18.55;15.52;;;4.90;99.90;;;;;;5118096;28;20152;-75
2023/01/19 07:10:26;;;;;;;17.23;15.55;;;4.90;99.90;;;;;;5118126;28;20440;-75
2023/01/19 07:12:55;;;;;;;16.92;15.20;;;4.80;99.90;;;;;;5117512;28;20039;-75
2023/01/19 07:15:21;;;;;;;21.52;15.60;;;4.60;99.90;;;;;;5116570;28;20055;-75
2023/01/19 07:17:47;;;;;;;19.33;17.00;;;4.60;99.90;;;;;;5117244;28;20073;-75
2023/01/19 07:20:13;;;;;;;22.10;15.85;;;4.60;99.90;;;;;;5117471;28;20039;-75
2023/01/19 07:22:40;;;;;;;16.88;14.77;;;4.60;99.90;;;;;;5117764;28;20028;-75
2023/01/19 07:25:06;;;;;;;22.50;15.80;;;4.60;99.90;;;;;;5117304;28;20051;-75
2023/01/19 07:27:32;;;;;;;17.60;16.02;;;4.50;99.90;;;;;;5116382;28;20048;-75
2023/01/19 07:29:59;;;;;;;17.38;15.57;;;4.70;99.90;;;;;;5117413;28;20046;-75
2023/01/19 07:32:26;;;;;;;23.95;16.65;;;4.70;99.90;;;;;;5118299;28;20051;-75
2023/01/19 07:34:52;;;;;;;18.88;17.00;;;4.70;99.90;;;;;;5117597;28;20120;-75
2023/01/19 07:37:18;;;;;;;17.98;16.15;;;4.60;99.90;;;;;;5117640;28;20063;-75
2023/01/19 07:39:43;;;;;;;20.80;17.00;;;4.60;99.90;;;;;;5116487;28;20093;-76
2023/01/19 07:42:09;;;;;;;21.15;15.60;;;4.70;99.90;;;;;;5117308;28;20043;-75
2023/01/19 07:44:35;;;;;;;21.90;16.45;;;4.60;99.90;;;;;;5117462;28;20040;-75
2023/01/19 07:47:02;;;;;;;16.75;14.40;;;4.60;99.90;;;;;;5117138;28;20062;-75
2023/01/19 07:49:27;;;;;;;18.20;14.90;;;4.60;99.90;;;;;;5117549;28;20448;-75
2023/01/19 07:51:55;;;;;;;16.67;15.05;;;4.60;99.90;;;;;;5117569;28;20075;-75
2023/01/19 07:54:21;;;;;;;25.17;15.65;;;4.50;99.90;;;;;;5117363;28;20104;-75
2023/01/19 07:56:47;;;;;;;26.63;16.05;;;4.60;99.90;;;;;;5116073;28;20424;-75
2023/01/19 07:59:13;;;;;;;23.95;16.65;;;4.50;99.90;;;;;;5117326;28;20039;-74
2023/01/19 08:01:40;;;;;;;22.90;15.90;;;4.50;99.90;;;;;;5117061;28;20428;-75
2023/01/19 08:04:05;;;;;;;20.08;16.58;;;4.60;99.90;;;;;;5116903;28;20450;-75
2023/01/19 08:06:37;;;;;;;22.30;15.85;;;4.50;99.90;;;;;;5117264;28;20043;-75
2023/01/19 08:09:06;;;;;;;21.85;14.40;;;4.60;99.90;;;;;;5117291;28;20043;-75
2023/01/19 08:11:32;;;;;;;21.70;8.80;;;4.60;99.90;;;;;;5116744;28;20376;-75
2023/01/19 08:13:59;;;;;;;14.80;9.18;;;4.50;99.90;;;;;;5116276;28;20035;-76
2023/01/19 08:16:26;;;;;;;17.55;9.45;;;4.60;99.90;;;;;;5116050;28;20043;-75
2023/01/19 08:18:52;;;;;;;9.55;8.35;;;4.50;99.90;;;;;;5116109;28;20325;-75
2023/01/19 08:21:18;;;;;;;17.05;6.28;;;4.50;99.90;;;;;;5116620;28;20043;-74
2023/01/19 08:23:44;;;;;;;13.93;6.53;;;4.50;99.90;;;;;;5117349;28;20047;-75
2023/01/19 08:26:33;;;;;;;13.05;6.93;;;4.60;99.90;;;;;;5120956;28;20075;-74
2023/01/19 08:29:01;;;;;;;16.73;7.45;;;4.70;99.90;;;;;;5121247;28;20310;-73
2023/01/19 08:31:27;;;;;;;15.30;7.30;;;4.80;99.90;;;;;;5121144;28;20324;-72
2023/01/19 08:33:52;;;;;;;19.67;7.57;;;4.90;99.90;;;;;;5121153;28;20043;-75
2023/01/19 08:36:20;;;;;;;19.23;8.02;;;4.90;99.90;;;;;;5121046;28;20398;-73
2023/01/19 08:38:46;;;;;;;25.48;8.93;;;5.00;99.90;;;;;;5103001;28;20097;-74
2023/01/19 08:41:12;;;;;;;19.73;7.90;;;5.10;99.90;;;;;;5099767;28;20038;-73
2023/01/19 08:43:38;;;;;;;21.17;8.65;;;5.10;99.90;;;;;;5100174;28;20040;-73
2023/01/19 08:46:04;;;;;;;19.80;7.72;;;5.30;99.90;;;;;;5100461;28;20420;-73
2023/01/19 08:48:30;;;;;;;23.02;8.38;;;5.30;99.90;;;;;;5100093;28;20024;-73
2023/01/19 08:50:56;;;;;;;19.05;9.00;;;5.30;99.90;;;;;;5100341;28;20408;-74
2023/01/19 08:53:25;;;;;;;20.52;9.50;;;5.30;99.90;;;;;;5100294;28;20032;-68
2023/01/19 08:56:00;;;;;;;13.70;9.02;;;5.30;99.90;;;;;;5100191;28;20040;-70
2023/01/19 08:58:26;;;;;;;16.00;10.43;;;5.30;99.90;;;;;;5100267;28;20048;-70
2023/01/19 09:00:52;;;;;;;20.20;9.65;;;5.30;99.90;;;;;;5100220;28;20102;-68
2023/01/19 09:03:20;;;;;;;21.80;10.02;;;5.20;99.90;;;;;;5099726;28;20061;-70
2023/01/19 09:05:46;;;;;;;23.67;10.15;;;5.30;99.90;;;;;;5099780;28;20424;-70
2023/01/19 09:08:13;;;;;;;18.30;10.00;;;5.40;99.90;;;;;;5100008;28;20036;-70
2023/01/19 09:10:47;;;;;;;20.95;8.20;;;5.40;99.90;;;;;;5099996;28;20077;-70
2023/01/19 09:13:13;;;;;;;32.17;9.68;;;5.30;99.90;;;;;;5115380;28;20039;-70
2023/01/19 09:15:41;;;;;;;24.55;8.82;;;5.30;99.90;;;;;;5099591;28;20487;-71
2023/01/19 09:18:11;;;;;;;24.63;8.00;;;5.20;99.90;;;;;;5098153;28;20405;-71
2023/01/19 09:20:37;;;;;;;17.92;7.05;;;5.10;99.90;;;;;;5099898;28;20036;-70
2023/01/19 09:23:04;;;;;;;26.15;7.75;;;5.10;99.90;;;;;;5099770;28;20036;-69
2023/01/19 09:25:31;;;;;;;27.80;7.88;;;5.00;99.90;;;;;;5099074;28;20113;-69
2023/01/19 09:27:59;;;;;;;22.77;7.72;;;5.00;99.90;;;;;;5099677;28;20351;-69
2023/01/19 09:30:26;;;;;;;16.10;8.13;;;5.00;99.90;;;;;;5098554;28;20036;-69
2023/01/19 09:32:52;;;;;;;22.48;8.25;;;5.00;99.90;;;;;;5099537;28;20054;-71
2023/01/19 09:35:18;;;;;;;20.17;7.25;;;5.10;99.90;;;;;;5097190;28;20059;-71
2023/01/19 09:37:47;;;;;;;26.92;7.45;;;5.00;99.90;;;;;;5110898;28;20035;-70
2023/01/19 09:40:14;;;;;;;14.68;7.88;;;5.00;99.90;;;;;;5118664;28;20036;-70
2023/01/19 09:42:49;;;;;;;20.48;7.07;;;5.10;99.90;;;;;;5118768;28;20172;-70
2023/01/19 09:45:41;;;;;;;22.10;6.88;;;5.10;99.90;;;;;;5113968;28;20035;-70
2023/01/19 09:48:28;;;;;;;17.30;6.40;;;5.10;99.90;;;;;;5099938;28;20040;-70
2023/01/19 09:50:57;;;;;;;17.98;5.82;;;5.20;99.90;;;;;;5098645;28;20440;-70
2023/01/19 09:53:49;;;;;;;11.60;6.07;;;5.20;99.90;;;;;;5098911;28;20111;-70
2023/01/19 09:56:18;;;;;;;12.20;6.60;;;5.20;99.90;;;;;;5088537;28;20473;-70
2023/01/19 09:58:46;;;;;;;17.55;5.30;;;5.30;99.90;;;;;;5098596;28;20456;-70
2023/01/19 10:01:49;;;;;;;22.73;5.40;;;5.30;99.90;;;;;;5118253;28;20067;-70
2023/01/19 10:04:35;;;;;;;12.55;4.80;;;5.40;99.90;;;;;;5103705;28;20097;-69
2023/01/19 10:07:33;;;;;;;11.65;4.65;;;5.40;99.90;;;;;;5098423;28;20044;-70
2023/01/19 10:10:06;;;;;;;17.77;5.32;;;5.60;99.90;;;;;;5087092;28;20048;-70
2023/01/19 10:12:56;;;;;;;16.42;5.10;;;5.50;99.90;;;;;;5098657;28;20029;-71
2023/01/19 10:15:44;;;;;;;18.42;4.28;;;5.60;99.90;;;;;;5098673;28;20047;-70
2023/01/19 10:18:35;;;;;;;18.20;4.05;;;5.50;99.90;;;;;;5098378;28;20044;-70
2023/01/19 10:21:09;;;;;;;13.40;4.25;;;5.50;99.90;;;;;;5098620;28;20157;-70
2023/01/19 10:23:57;;;;;;;12.45;3.78;;;5.80;99.90;;;;;;5098195;28;20044;-70
2023/01/19 10:26:54;;;;;;;13.25;3.67;;;5.90;99.90;;;;;;5098493;28;20048;-70
2023/01/19 10:29:35;;;;;;;11.80;3.22;;;5.90;99.90;;;;;;5088389;28;20310;-71
2023/01/19 10:32:25;;;;;;;14.90;4.22;;;6.10;99.90;;;;;;5098076;28;20425;-71
2023/01/19 10:34:52;;;;;;;17.48;3.25;;;6.20;99.90;;;;;;5098298;28;20043;-71
2023/01/19 10:37:23;;;;;;;20.55;3.13;;;6.10;99.90;;;;;;5098042;28;20036;-71
2023/01/19 10:39:56;;;;;;;14.82;3.20;;;6.10;99.90;;;;;;5097893;28;20066;-71
2023/01/19 10:42:21;;;;;;;19.20;2.67;;;6.30;99.90;;;;;;5097834;28;20510;-71
2023/01/19 10:44:48;;;;;;;10.55;2.30;;;6.20;99.90;;;;;;5097701;28;20032;-71
2023/01/19 10:47:19;;;;;;;14.68;3.00;;;6.30;99.90;;;;;;5097263;28;20109;-71
2023/01/19 10:49:47;;;;;;;10.65;2.20;;;6.60;99.90;;;;;;5097799;28;20043;-75
2023/01/19 10:52:26;;;;;;;18.70;2.70;;;6.50;99.90;;;;;;5113415;28;20039;-72
2023/01/19 10:54:51;;;;;;;10.38;2.70;;;6.40;99.90;;;;;;5097956;28;20039;-71
2023/01/19 10:57:30;;;;;;;12.93;3.10;;;6.30;99.90;;;;;;5097698;28;20393;-71
2023/01/19 10:59:57;;;;;;;13.55;2.88;;;6.30;99.90;;;;;;5110725;28;20043;-71
2023/01/19 11:02:27;;;;;;;12.82;2.80;;;6.40;99.90;;;;;;5098532;28;20042;-71
2023/01/19 11:05:19;;;;;;;12.25;2.15;;;6.40;99.90;;;;;;5119354;27;20070;-71
2023/01/19 11:07:45;;;;;;;12.18;2.15;;;6.30;99.90;;;;;;5117919;28;20040;-71
2023/01/19 11:10:22;;;;;;;13.55;3.38;;;6.50;99.90;;;;;;5116555;28;20041;-71
2023/01/19 11:13:11;;;;;;;9.50;2.45;;;6.60;99.90;;;;;;5117553;28;20441;-72
2023/01/19 11:16:03;;;;;;;15.80;2.38;;;6.70;99.90;;;;;;5124417;27;20031;-77
2023/01/19 11:18:32;;;;;;;15.10;2.03;;;6.80;99.90;;;;;;5130031;27;20167;-72
2023/01/19 11:21:11;;;;;;;14.13;2.33;;;6.80;99.90;;;;;;5117206;28;20054;-72
2023/01/19 11:23:57;;;;;;;21.38;2.10;;;6.90;99.90;;;;;;5117389;28;20036;-71
2023/01/19 11:26:43;;;;;;;12.02;2.15;;;6.90;99.90;;;;;;5113547;27;20039;-71
2023/01/19 11:29:24;;;;;;;11.50;1.77;;;6.90;99.90;;;;;;5117481;28;20031;-72
2023/01/19 11:31:52;;;;;;;10.52;2.00;;;6.90;99.90;;;;;;5115477;27;20039;-75
2023/01/19 11:34:22;;;;;;;9.27;1.85;;;7.10;99.90;;;;;;5116783;28;20040;-72
2023/01/19 11:36:56;;;;;;;12.88;2.25;;;7.40;99.90;;;;;;5117623;28;20043;-71
2023/01/19 11:39:31;;;;;;;12.02;2.30;;;7.40;99.90;;;;;;5117557;28;20085;-71
2023/01/19 11:42:01;;;;;;;18.80;2.30;;;7.60;99.90;;;;;;5115601;28;20525;-70
2023/01/19 11:44:37;;;;;;;12.70;1.98;;;7.60;99.90;;;;;;5117386;28;20043;-72
2023/01/19 11:47:16;;;;;;;14.02;1.85;;;7.60;99.90;;;;;;5116720;28;20101;-71
2023/01/19 11:49:41;;;;;;;14.95;1.92;;;7.80;99.90;;;;;;5116792;28;20067;-70
2023/01/19 11:52:28;;;;;;;12.50;1.92;;;7.90;99.90;;;;;;5117324;28;20143;-70
2023/01/19 11:55:00;;;;;;;13.52;2.08;;;7.70;99.90;;;;;;5115835;28;20192;-69
2023/01/19 11:57:26;;;;;;;8.52;1.25;;;8.00;99.90;;;;;;5117368;28;20050;-70
2023/01/19 11:59:53;;;;;;;12.70;1.67;;;8.20;99.90;;;;;;5116476;28;20039;-70
2023/01/19 12:02:39;;;;;;;6.97;1.25;;;8.30;99.90;;;;;;5117213;28;20128;-71
2023/01/19 12:05:11;;;;;;;8.88;0.85;;;8.40;99.90;;;;;;5116643;28;20050;-71
2023/01/19 12:07:37;;;;;;;10.88;1.50;;;8.20;99.20;;;;;;5117272;28;20050;-71
2023/01/19 12:10:18;;;;;;;10.57;1.17;;;8.20;99.30;;;;;;5116342;28;20038;-70
2023/01/19 12:12:44;;;;;;;7.88;1.35;;;8.30;99.50;;;;;;5117243;28;20035;-69
2023/01/19 12:15:31;;;;;;;6.68;0.73;;;8.40;99.10;;;;;;5116524;28;20040;-70
2023/01/19 12:18:00;;;;;;;6.00;0.93;;;8.40;98.40;;;;;;5116099;28;20045;-70
2023/01/19 12:20:35;;;;;;;14.10;2.40;;;8.40;97.90;;;;;;5116485;28;20044;-71
2023/01/19 12:23:13;;;;;;;6.75;0.82;;;8.30;98.10;;;;;;5117145;28;20054;-70
2023/01/19 12:25:56;;;;;;;10.48;1.23;;;8.20;97.80;;;;;;5116643;28;20048;-70
2023/01/19 12:28:29;;;;;;;9.57;0.80;;;8.00;98.20;;;;;;5116211;28;20035;-71
2023/01/19 12:30:57;;;;;;;7.40;0.73;;;8.10;98.50;;;;;;5116990;28;20044;-70
2023/01/19 12:33:28;;;;;;;10.32;0.90;;;8.30;98.60;;;;;;5118103;28;20040;-72
2023/01/19 12:36:03;;;;;;;8.95;1.33;;;8.20;98.30;;;;;;5116650;28;20429;-71
2023/01/19 12:38:46;;;;;;;7.18;0.65;;;7.70;98.50;;;;;;5116953;28;20043;-70
2023/01/19 12:41:30;;;;;;;16.73;1.50;;;7.50;99.10;;;;;;5116843;28;20046;-73
2023/01/19 12:44:10;;;;;;;10.77;0.85;;;7.40;99.20;;;;;;5116831;28;20429;-71
2023/01/19 12:46:53;;;;;;;5.55;0.55;;;7.40;98.90;;;;;;5116846;28;20072;-75
2023/01/19 12:49:39;;;;;;;8.77;0.98;;;7.40;98.80;;;;;;5116164;28;20111;-70
2023/01/19 12:52:20;;;;;;;9.45;1.75;;;8.00;98.80;;;;;;5115239;28;20035;-69
2023/01/19 12:55:05;;;;;;;11.95;0.80;;;8.40;98.10;;;;;;5116273;28;20118;-70
2023/01/19 12:58:00;;;;;;;14.38;0.93;;;8.30;97.90;;;;;;5113372;28;20051;-70
2023/01/19 13:00:42;;;;;;;5.80;0.80;;;8.20;97.60;;;;;;5109730;28;20048;-70
2023/01/19 13:03:16;;;;;;;9.52;0.55;;;8.00;97.20;;;;;;5101225;28;20040;-79